sensor_id;sensor_type;location;lat;lon;timestamp;pressure;altitude;pressure_sealevel;temperature;humidity
76998;BME280;65930;48.874;10.734;2023-04-01T00:01:53;94700.66;;;6.83;80.47
76998;BME280;65930;48.874;10.734;2023-04-01T00:04:21;94695.97;;;6.80;80.41
76998;BME280;65930;48.874;10.734;2023-04-01T00:06:51;94715.19;;;6.83;79.83
76998;BME280;65930;48.874;10.734;2023-04-01T00:09:19;94698.31;;;6.81;80.54
76998;BME280;65930;48.874;10.734;2023-04-01T00:11:48;94692.47;;;6.76;80.24
76998;BME280;65930;48.874;10.734;2023-04-01T00:14:18;94678.69;;;6.79;80.49
76998;BME280;65930;48.874;10.734;2023-04-01T00:16:48;94695.09;;;6.90;79.89
76998;BME280;65930;48.874;10.734;2023-04-01T00:19:17;94690.81;;;6.85;80.15
76998;BME280;65930;48.874;10.734;2023-04-01T00:21:45;94697.13;;;6.82;80.44
76998;BME280;65930;48.874;10.734;2023-04-01T00:24:16;94693.22;;;6.80;80.73
76998;BME280;65930;48.874;10.734;2023-04-01T00:26:48;94681.13;;;6.70;80.84
76998;BME280;65930;48.874;10.734;2023-04-01T00:29:16;94701.47;;;6.80;80.84
76998;BME280;65930;48.874;10.734;2023-04-01T00:31:47;94690.50;;;6.76;80.41
76998;BME280;65930;48.874;10.734;2023-04-01T00:34:16;94689.78;;;6.69;81.08
76998;BME280;65930;48.874;10.734;2023-04-01T00:36:45;94697.56;;;6.77;81.10
76998;BME280;65930;48.874;10.734;2023-04-01T00:39:13;94694.03;;;6.77;80.87
76998;BME280;65930;48.874;10.734;2023-04-01T00:41:42;94685.13;;;6.66;81.27
76998;BME280;65930;48.874;10.734;2023-04-01T00:44:19;94680.84;;;6.61;81.58
76998;BME280;65930;48.874;10.734;2023-04-01T00:46:50;94675.72;;;6.59;81.29
76998;BME280;65930;48.874;10.734;2023-04-01T00:49:28;94683.63;;;6.54;81.65
76998;BME280;65930;48.874;10.734;2023-04-01T00:52:00;94704.81;;;6.60;81.46
76998;BME280;65930;48.874;10.734;2023-04-01T00:54:31;94678.19;;;6.50;81.84
76998;BME280;65930;48.874;10.734;2023-04-01T00:57:03;94699.34;;;6.57;82.32
76998;BME280;65930;48.874;10.734;2023-04-01T00:59:35;94688.47;;;6.43;82.23
76998;BME280;65930;48.874;10.734;2023-04-01T01:02:14;94685.84;;;6.29;83.02
76998;BME280;65930;48.874;10.734;2023-04-01T01:04:45;94686.94;;;6.35;82.70
76998;BME280;65930;48.874;10.734;2023-04-01T01:07:25;94691.31;;;6.32;83.32
76998;BME280;65930;48.874;10.734;2023-04-01T01:10:03;94683.41;;;6.38;83.82
76998;BME280;65930;48.874;10.734;2023-04-01T01:12:43;94676.84;;;6.25;82.92
76998;BME280;65930;48.874;10.734;2023-04-01T01:15:21;94675.25;;;6.27;83.32
76998;BME280;65930;48.874;10.734;2023-04-01T01:18:04;94677.16;;;6.34;83.51
76998;BME280;65930;48.874;10.734;2023-04-01T01:21:03;94673.53;;;6.44;83.61
76998;BME280;65930;48.874;10.734;2023-04-01T01:23:57;94678.25;;;6.43;83.89
76998;BME280;65930;48.874;10.734;2023-04-01T01:26:49;94668.88;;;6.37;83.69
76998;BME280;65930;48.874;10.734;2023-04-01T01:35:32;94654.72;;;6.39;83.09
76998;BME280;65930;48.874;10.734;2023-04-01T01:38:21;94649.56;;;6.41;83.40
76998;BME280;65930;48.874;10.734;2023-04-01T01:40:56;94634.25;;;6.40;83.57
76998;BME280;65930;48.874;10.734;2023-04-01T01:43:29;94644.38;;;6.50;82.88
76998;BME280;65930;48.874;10.734;2023-04-01T01:46:03;94645.25;;;6.43;83.26
76998;BME280;65930;48.874;10.734;2023-04-01T01:48:34;94646.84;;;6.41;82.96
76998;BME280;65930;48.874;10.734;2023-04-01T01:51:07;94640.94;;;6.42;83.17
76998;BME280;65930;48.874;10.734;2023-04-01T01:53:38;94651.97;;;6.35;83.60
76998;BME280;65930;48.874;10.734;2023-04-01T01:56:06;94635.91;;;6.34;83.52
76998;BME280;65930;48.874;10.734;2023-04-01T01:58:39;94656.25;;;6.40;83.83
76998;BME280;65930;48.874;10.734;2023-04-01T02:01:14;94656.25;;;6.40;83.82
76998;BME280;65930;48.874;10.734;2023-04-01T02:03:45;94650.88;;;6.26;83.90
76998;BME280;65930;48.874;10.734;2023-04-01T02:06:18;94649.78;;;6.19;84.38
76998;BME280;65930;48.874;10.734;2023-04-01T02:08:51;94656.03;;;6.24;84.08
76998;BME280;65930;48.874;10.734;2023-04-01T02:11:27;94651.00;;;6.11;84.70
76998;BME280;65930;48.874;10.734;2023-04-01T02:14:03;94643.16;;;6.13;84.38
76998;BME280;65930;48.874;10.734;2023-04-01T02:16:36;94657.22;;;6.23;84.19
76998;BME280;65930;48.874;10.734;2023-04-01T02:19:07;94647.91;;;6.09;84.35
76998;BME280;65930;48.874;10.734;2023-04-01T02:21:39;94651.78;;;6.12;84.17
76998;BME280;65930;48.874;10.734;2023-04-01T02:24:13;94660.94;;;6.02;84.45
76998;BME280;65930;48.874;10.734;2023-04-01T02:26:51;94662.00;;;6.11;83.73
76998;BME280;65930;48.874;10.734;2023-04-01T02:29:23;94676.19;;;6.10;84.20
76998;BME280;65930;48.874;10.734;2023-04-01T02:31:54;94661.66;;;6.09;83.77
76998;BME280;65930;48.874;10.734;2023-04-01T02:34:24;94669.47;;;6.14;84.23
76998;BME280;65930;48.874;10.734;2023-04-01T02:36:55;94668.28;;;6.15;84.12
76998;BME280;65930;48.874;10.734;2023-04-01T02:39:27;94681.13;;;6.26;84.48
76998;BME280;65930;48.874;10.734;2023-04-01T02:41:56;94657.34;;;6.08;84.95
76998;BME280;65930;48.874;10.734;2023-04-01T02:44:24;94682.03;;;6.15;85.33
76998;BME280;65930;48.874;10.734;2023-04-01T02:46:52;94677.75;;;6.11;85.54
76998;BME280;65930;48.874;10.734;2023-04-01T02:49:20;94688.75;;;6.07;85.65
76998;BME280;65930;48.874;10.734;2023-04-01T02:51:48;94685.59;;;6.09;85.53
76998;BME280;65930;48.874;10.734;2023-04-01T02:54:17;94684.03;;;6.08;85.40
76998;BME280;65930;48.874;10.734;2023-04-01T02:56:45;94679.78;;;6.00;85.50
76998;BME280;65930;48.874;10.734;2023-04-01T02:59:13;94684.81;;;6.08;85.56
76998;BME280;65930;48.874;10.734;2023-04-01T03:01:41;94698.53;;;6.12;85.29
76998;BME280;65930;48.874;10.734;2023-04-01T03:04:09;94701.72;;;6.07;85.42
76998;BME280;65930;48.874;10.734;2023-04-01T03:06:37;94691.78;;;6.24;85.55
76998;BME280;65930;48.874;10.734;2023-04-01T03:09:05;94697.31;;;6.16;85.88
76998;BME280;65930;48.874;10.734;2023-04-01T03:11:37;94694.13;;;6.22;86.23
76998;BME280;65930;48.874;10.734;2023-04-01T03:14:05;94690.28;;;6.12;86.51
76998;BME280;65930;48.874;10.734;2023-04-01T03:16:33;94700.47;;;6.18;86.12
76998;BME280;65930;48.874;10.734;2023-04-01T03:19:01;94700.50;;;6.15;85.93
76998;BME280;65930;48.874;10.734;2023-04-01T03:21:29;94712.22;;;6.23;85.97
76998;BME280;65930;48.874;10.734;2023-04-01T03:23:57;94704.34;;;6.25;85.71
76998;BME280;65930;48.874;10.734;2023-04-01T03:26:25;94702.81;;;6.20;85.74
76998;BME280;65930;48.874;10.734;2023-04-01T03:28:55;94720.06;;;6.20;86.42
76998;BME280;65930;48.874;10.734;2023-04-01T03:31:24;94722.88;;;6.13;86.64
76998;BME280;65930;48.874;10.734;2023-04-01T03:33:52;94713.44;;;6.14;86.46
76998;BME280;65930;48.874;10.734;2023-04-01T03:36:20;94708.38;;;6.09;86.26
76998;BME280;65930;48.874;10.734;2023-04-01T03:38:48;94719.41;;;6.06;87.18
76998;BME280;65930;48.874;10.734;2023-04-01T03:41:17;94717.03;;;6.08;86.80
76998;BME280;65930;48.874;10.734;2023-04-01T03:43:45;94715.88;;;6.05;86.54
76998;BME280;65930;48.874;10.734;2023-04-01T03:46:18;94720.94;;;6.10;86.69
76998;BME280;65930;48.874;10.734;2023-04-01T03:48:47;94724.91;;;6.06;86.50
76998;BME280;65930;48.874;10.734;2023-04-01T03:51:15;94727.28;;;6.04;86.84
76998;BME280;65930;48.874;10.734;2023-04-01T03:53:43;94732.78;;;6.00;86.98
76998;BME280;65930;48.874;10.734;2023-04-01T03:56:11;94736.66;;;6.10;86.80
76998;BME280;65930;48.874;10.734;2023-04-01T03:58:39;94731.94;;;6.10;86.57
76998;BME280;65930;48.874;10.734;2023-04-01T04:01:15;94725.69;;;6.06;86.60
76998;BME280;65930;48.874;10.734;2023-04-01T04:03:45;94719.81;;;6.04;86.39
76998;BME280;65930;48.874;10.734;2023-04-01T04:06:14;94717.88;;;6.01;86.55
76998;BME280;65930;48.874;10.734;2023-04-01T04:08:42;94722.16;;;6.02;86.54
76998;BME280;65930;48.874;10.734;2023-04-01T04:11:12;94718.63;;;6.05;86.31
76998;BME280;65930;48.874;10.734;2023-04-01T04:13:40;94725.69;;;6.06;86.31
76998;BME280;65930;48.874;10.734;2023-04-01T04:16:09;94726.44;;;6.07;85.86
76998;BME280;65930;48.874;10.734;2023-04-01T04:18:37;94710.81;;;6.00;86.01
76998;BME280;65930;48.874;10.734;2023-04-01T04:21:07;94723.38;;;5.98;85.81
76998;BME280;65930;48.874;10.734;2023-04-01T04:23:35;94723.38;;;6.01;86.12
76998;BME280;65930;48.874;10.734;2023-04-01T04:26:06;94724.16;;;5.98;86.05
76998;BME280;65930;48.874;10.734;2023-04-01T04:28:34;94722.97;;;5.99;86.45
76998;BME280;65930;48.874;10.734;2023-04-01T04:31:03;94719.44;;;5.99;86.32
76998;BME280;65930;48.874;10.734;2023-04-01T04:33:33;94717.09;;;5.97;86.16
76998;BME280;65930;48.874;10.734;2023-04-01T04:36:02;94732.38;;;6.05;85.80
76998;BME280;65930;48.874;10.734;2023-04-01T04:38:32;94723.28;;;6.15;85.39
76998;BME280;65930;48.874;10.734;2023-04-01T04:41:00;94724.91;;;6.02;85.83
76998;BME280;65930;48.874;10.734;2023-04-01T04:43:28;94730.41;;;6.02;85.69
76998;BME280;65930;48.874;10.734;2023-04-01T04:45:56;94729.56;;;6.12;85.38
76998;BME280;65930;48.874;10.734;2023-04-01T04:48:24;94742.94;;;6.07;85.50
76998;BME280;65930;48.874;10.734;2023-04-01T04:50:52;94742.94;;;6.07;85.64
76998;BME280;65930;48.874;10.734;2023-04-01T04:53:20;94735.50;;;6.04;85.42
76998;BME280;65930;48.874;10.734;2023-04-01T04:55:50;94731.94;;;6.10;85.50
76998;BME280;65930;48.874;10.734;2023-04-01T04:58:18;94728.00;;;6.11;84.83
76998;BME280;65930;48.874;10.734;2023-04-01T05:00:47;94735.06;;;6.12;85.18
76998;BME280;65930;48.874;10.734;2023-04-01T05:03:14;94728.03;;;6.08;84.98
76998;BME280;65930;48.874;10.734;2023-04-01T05:05:49;94726.44;;;6.07;84.96
76998;BME280;65930;48.874;10.734;2023-04-01T05:08:17;94728.81;;;6.08;84.53
76998;BME280;65930;48.874;10.734;2023-04-01T05:10:45;94725.63;;;6.13;84.49
76998;BME280;65930;48.874;10.734;2023-04-01T05:13:14;94731.88;;;6.17;84.29
76998;BME280;65930;48.874;10.734;2023-04-01T05:15:42;94727.16;;;6.18;83.86
76998;BME280;65930;48.874;10.734;2023-04-01T05:18:10;94730.38;;;6.09;83.55
76998;BME280;65930;48.874;10.734;2023-04-01T05:20:38;94731.88;;;6.17;83.33
76998;BME280;65930;48.874;10.734;2023-04-01T05:23:06;94733.50;;;6.15;82.99
76998;BME280;65930;48.874;10.734;2023-04-01T05:25:37;94727.16;;;6.18;83.17
76998;BME280;65930;48.874;10.734;2023-04-01T05:28:05;94723.28;;;6.15;82.80
76998;BME280;65930;48.874;10.734;2023-04-01T05:30:34;94730.31;;;6.16;83.24
76998;BME280;65930;48.874;10.734;2023-04-01T05:33:02;94734.28;;;6.12;82.60
76998;BME280;65930;48.874;10.734;2023-04-01T05:35:30;94728.44;;;6.06;82.45
76998;BME280;65930;48.874;10.734;2023-04-01T05:37:59;94717.78;;;6.15;81.72
76998;BME280;65930;48.874;10.734;2023-04-01T05:40:27;94731.88;;;6.17;81.63
76998;BME280;65930;48.874;10.734;2023-04-01T05:42:55;94722.06;;;6.16;81.79
76998;BME280;65930;48.874;10.734;2023-04-01T05:45:23;94721.31;;;6.12;81.46
76998;BME280;65930;48.874;10.734;2023-04-01T05:47:54;94721.69;;;6.14;81.09
76998;BME280;65930;48.874;10.734;2023-04-01T05:50:22;94739.00;;;6.11;80.42
76998;BME280;65930;48.874;10.734;2023-04-01T05:52:50;94728.00;;;6.15;80.68
76998;BME280;65930;48.874;10.734;2023-04-01T05:55:18;94729.13;;;6.17;80.43
76998;BME280;65930;48.874;10.734;2023-04-01T05:57:47;94732.69;;;6.14;80.69
76998;BME280;65930;48.874;10.734;2023-04-01T06:00:16;94717.78;;;6.15;80.17
76998;BME280;65930;48.874;10.734;2023-04-01T06:02:46;94731.88;;;6.17;80.00
76998;BME280;65930;48.874;10.734;2023-04-01T06:05:19;94730.31;;;6.20;79.41
76998;BME280;65930;48.874;10.734;2023-04-01T06:07:48;94731.94;;;6.10;79.53
76998;BME280;65930;48.874;10.734;2023-04-01T06:10:18;94728.78;;;6.12;79.54
76998;BME280;65930;48.874;10.734;2023-04-01T06:12:54;94737.78;;;6.16;80.32
76998;BME280;65930;48.874;10.734;2023-04-01T06:15:33;94739.69;;;6.23;80.33
76998;BME280;65930;48.874;10.734;2023-04-01T06:21:19;94738.13;;;6.22;80.79
76998;BME280;65930;48.874;10.734;2023-04-01T06:24:00;94725.97;;;6.23;81.29
76998;BME280;65930;48.874;10.734;2023-04-01T06:26:39;94730.31;;;6.20;81.54
76998;BME280;65930;48.874;10.734;2023-04-01T06:29:36;94739.59;;;6.37;81.83
76998;BME280;65930;48.874;10.734;2023-04-01T06:32:30;94733.28;;;6.43;81.62
76998;BME280;65930;48.874;10.734;2023-04-01T06:35:19;94748.13;;;6.49;81.67
76998;BME280;65930;48.874;10.734;2023-04-01T06:43:59;94737.16;;;6.90;80.95
76998;BME280;65930;48.874;10.734;2023-04-01T06:46:42;94736.84;;;6.81;80.36
76998;BME280;65930;48.874;10.734;2023-04-01T06:49:35;94739.59;;;6.81;80.55
76998;BME280;65930;48.874;10.734;2023-04-01T06:52:15;94734.84;;;6.85;81.11
76998;BME280;65930;48.874;10.734;2023-04-01T06:54:52;94737.22;;;6.83;80.49
76998;BME280;65930;48.874;10.734;2023-04-01T06:57:30;94735.94;;;6.91;79.98
76998;BME280;65930;48.874;10.734;2023-04-01T07:00:03;94723.69;;;6.99;79.97
76998;BME280;65930;48.874;10.734;2023-04-01T07:02:39;94726.69;;;7.12;79.23
76998;BME280;65930;48.874;10.734;2023-04-01T07:05:11;94723.84;;;7.19;78.94
76998;BME280;65930;48.874;10.734;2023-04-01T07:07:45;94716.66;;;7.29;78.69
76998;BME280;65930;48.874;10.734;2023-04-01T07:10:20;94711.72;;;7.47;78.27
76998;BME280;65930;48.874;10.734;2023-04-01T07:12:55;94706.13;;;7.54;76.70
76998;BME280;65930;48.874;10.734;2023-04-01T07:15:30;94717.59;;;7.79;76.54
76998;BME280;65930;48.874;10.734;2023-04-01T07:18:04;94712.03;;;7.83;76.03
76998;BME280;65930;48.874;10.734;2023-04-01T07:20:37;94716.19;;;7.94;76.03
76998;BME280;65930;48.874;10.734;2023-04-01T07:23:12;94707.94;;;7.94;75.49
76998;BME280;65930;48.874;10.734;2023-04-01T07:25:48;94707.13;;;7.94;75.71
76998;BME280;65930;48.874;10.734;2023-04-01T07:28:20;94714.88;;;8.06;74.44
76998;BME280;65930;48.874;10.734;2023-04-01T07:30:57;94722.16;;;7.93;74.46
76998;BME280;65930;48.874;10.734;2023-04-01T07:33:36;94714.94;;;7.99;74.88
76998;BME280;65930;48.874;10.734;2023-04-01T07:36:14;94720.53;;;7.95;74.06
76998;BME280;65930;48.874;10.734;2023-04-01T07:38:56;94720.91;;;7.97;73.77
76998;BME280;65930;48.874;10.734;2023-04-01T07:41:37;94724.47;;;7.94;74.22
76998;BME280;65930;48.874;10.734;2023-04-01T07:44:18;94722.19;;;7.89;74.22
76998;BME280;65930;48.874;10.734;2023-04-01T07:47:06;94727.22;;;7.94;73.93
76998;BME280;65930;48.874;10.734;2023-04-01T07:49:45;94729.78;;;8.09;73.93
76998;BME280;65930;48.874;10.734;2023-04-01T07:52:23;94732.41;;;7.89;74.11
76998;BME280;65930;48.874;10.734;2023-04-01T07:55:02;94726.44;;;7.94;74.22
76998;BME280;65930;48.874;10.734;2023-04-01T07:57:40;94716.56;;;7.96;73.73
76998;BME280;65930;48.874;10.734;2023-04-01T08:00:19;94721.38;;;7.89;73.42
76998;BME280;65930;48.874;10.734;2023-04-01T08:03:03;94719.38;;;7.93;74.33
76998;BME280;65930;48.874;10.734;2023-04-01T08:05:41;94720.41;;;8.03;73.25
76998;BME280;65930;48.874;10.734;2023-04-01T08:08:22;94721.16;;;8.07;72.53
76998;BME280;65930;48.874;10.734;2023-04-01T08:11:00;94729.25;;;8.17;72.26
76998;BME280;65930;48.874;10.734;2023-04-01T08:13:40;94720.50;;;8.22;72.98
76998;BME280;65930;48.874;10.734;2023-04-01T08:16:20;94719.31;;;8.23;73.25
76998;BME280;65930;48.874;10.734;2023-04-01T08:19:01;94720.09;;;8.24;72.41
76998;BME280;65930;48.874;10.734;2023-04-01T08:21:36;94723.72;;;8.21;71.97
76998;BME280;65930;48.874;10.734;2023-04-01T08:24:13;94718.47;;;8.26;71.79
76998;BME280;65930;48.874;10.734;2023-04-01T08:26:56;94723.22;;;8.29;72.33
76998;BME280;65930;48.874;10.734;2023-04-01T08:29:34;94715.38;;;8.24;72.43
76998;BME280;65930;48.874;10.734;2023-04-01T08:32:12;94732.00;;;8.17;72.38
76998;BME280;65930;48.874;10.734;2023-04-01T08:34:48;94728.97;;;8.12;72.39
76998;BME280;65930;48.874;10.734;2023-04-01T08:37:22;94733.91;;;8.24;71.78
76998;BME280;65930;48.874;10.734;2023-04-01T08:39:57;94722.94;;;8.17;72.76
76998;BME280;65930;48.874;10.734;2023-04-01T08:42:50;94727.13;;;8.28;72.79
76998;BME280;65930;48.874;10.734;2023-04-01T08:48:43;94721.59;;;8.28;72.37
76998;BME280;65930;48.874;10.734;2023-04-01T08:54:32;94721.81;;;8.41;73.39
76998;BME280;65930;48.874;10.734;2023-04-01T08:57:13;94718.34;;;8.37;72.98
76998;BME280;65930;48.874;10.734;2023-04-01T08:59:58;94728.38;;;8.51;73.01
76998;BME280;65930;48.874;10.734;2023-04-01T09:03:00;94716.22;;;8.48;72.89
76998;BME280;65930;48.874;10.734;2023-04-01T09:12:00;94730.28;;;8.27;73.08
76998;BME280;65930;48.874;10.734;2023-04-01T09:14:52;94732.25;;;8.30;73.56
76998;BME280;65930;48.874;10.734;2023-04-01T09:18:02;94727.00;;;8.39;74.67
76998;BME280;65930;48.874;10.734;2023-04-01T09:21:15;94727.66;;;8.20;74.78
76998;BME280;65930;48.874;10.734;2023-04-01T09:24:20;94734.25;;;8.26;74.75
76998;BME280;65930;48.874;10.734;2023-04-01T09:27:03;94733.06;;;8.27;74.71
76998;BME280;65930;48.874;10.734;2023-04-01T09:30:00;94738.81;;;8.39;74.71
76998;BME280;65930;48.874;10.734;2023-04-01T09:32:52;94732.75;;;8.48;74.83
76998;BME280;65930;48.874;10.734;2023-04-01T09:35:38;94734.81;;;8.44;75.01
76998;BME280;65930;48.874;10.734;2023-04-01T09:38:21;94736.56;;;8.31;75.57
76998;BME280;65930;48.874;10.734;2023-04-01T09:40:58;94728.66;;;8.33;76.29
76998;BME280;65930;48.874;10.734;2023-04-01T09:43:46;94722.41;;;8.29;76.59
76998;BME280;65930;48.874;10.734;2023-04-01T09:46:26;94732.66;;;8.28;77.24
76998;BME280;65930;48.874;10.734;2023-04-01T09:52:12;94720.81;;;8.28;77.78
76998;BME280;65930;48.874;10.734;2023-04-01T09:55:06;94733.13;;;8.23;77.49
76998;BME280;65930;48.874;10.734;2023-04-01T10:04:57;94726.88;;;7.92;81.04
76998;BME280;65930;48.874;10.734;2023-04-01T10:11:06;94732.94;;;7.80;80.76
76998;BME280;65930;48.874;10.734;2023-04-01T10:17:20;94737.38;;;7.71;81.15
76998;BME280;65930;48.874;10.734;2023-04-01T10:20:13;94733.50;;;7.68;81.54
76998;BME280;65930;48.874;10.734;2023-04-01T10:23:22;94739.75;;;7.72;80.70
76998;BME280;65930;48.874;10.734;2023-04-01T10:26:18;94731.53;;;7.69;80.93
76998;BME280;65930;48.874;10.734;2023-04-01T10:29:08;94722.09;;;7.66;81.29
76998;BME280;65930;48.874;10.734;2023-04-01T10:32:11;94732.94;;;7.80;81.20
76998;BME280;65930;48.874;10.734;2023-04-01T10:35:14;94739.19;;;7.84;81.27
76998;BME280;65930;48.874;10.734;2023-04-01T10:41:07;94737.25;;;7.81;81.31
76998;BME280;65930;48.874;10.734;2023-04-01T10:44:05;94730.88;;;7.88;80.76
76998;BME280;65930;48.874;10.734;2023-04-01T10:47:16;94735.63;;;7.87;81.27
76998;BME280;65930;48.874;10.734;2023-04-01T10:53:04;94720.44;;;7.72;81.67
76998;BME280;65930;48.874;10.734;2023-04-01T10:56:15;94740.41;;;7.83;82.32
76998;BME280;65930;48.874;10.734;2023-04-01T10:59:25;94729.91;;;7.71;81.46
76998;BME280;65930;48.874;10.734;2023-04-01T11:02:29;94715.63;;;7.80;81.70
76998;BME280;65930;48.874;10.734;2023-04-01T11:08:45;94735.69;;;7.80;82.73
76998;BME280;65930;48.874;10.734;2023-04-01T11:18:01;94723.94;;;7.76;82.53
76998;BME280;65930;48.874;10.734;2023-04-01T11:23:54;94735.88;;;7.66;83.52
76998;BME280;65930;48.874;10.734;2023-04-01T11:26:45;94731.38;;;7.49;83.31
76998;BME280;65930;48.874;10.734;2023-04-01T11:29:54;94737.69;;;7.49;83.90
76998;BME280;65930;48.874;10.734;2023-04-01T11:32:49;94729.75;;;7.55;84.12
76998;BME280;65930;48.874;10.734;2023-04-01T11:38:37;94738.81;;;7.52;84.42
76998;BME280;65930;48.874;10.734;2023-04-01T11:41:19;94729.75;;;7.51;84.00
76998;BME280;65930;48.874;10.734;2023-04-01T11:44:04;94732.78;;;7.64;84.31
76998;BME280;65930;48.874;10.734;2023-04-01T11:46:52;94726.53;;;7.60;84.54
76998;BME280;65930;48.874;10.734;2023-04-01T11:49:36;94728.78;;;7.65;83.68
76998;BME280;65930;48.874;10.734;2023-04-01T11:52:31;94733.56;;;7.61;83.87
76998;BME280;65930;48.874;10.734;2023-04-01T11:55:23;94730.75;;;7.68;83.75
76998;BME280;65930;48.874;10.734;2023-04-01T11:58:13;94731.53;;;7.69;84.18
76998;BME280;65930;48.874;10.734;2023-04-01T12:01:03;94736.53;;;7.77;83.62
76998;BME280;65930;48.874;10.734;2023-04-01T12:04:00;94747.56;;;7.77;82.65
76998;BME280;65930;48.874;10.734;2023-04-01T12:06:40;94738.91;;;7.75;82.97
76998;BME280;65930;48.874;10.734;2023-04-01T12:09:21;94745.47;;;7.85;82.22
76998;BME280;65930;48.874;10.734;2023-04-01T12:12:10;94748.97;;;7.89;81.91
76998;BME280;65930;48.874;10.734;2023-04-01T12:14:50;94747.09;;;7.82;81.19
76998;BME280;65930;48.874;10.734;2023-04-01T12:17:33;94741.16;;;7.84;81.48
76998;BME280;65930;48.874;10.734;2023-04-01T12:20:26;94752.41;;;7.96;81.14
76998;BME280;65930;48.874;10.734;2023-04-01T12:23:12;94764.59;;;7.99;80.60
76998;BME280;65930;48.874;10.734;2023-04-01T12:26:00;94754.41;;;7.96;81.33
76998;BME280;65930;48.874;10.734;2023-04-01T12:28:44;94750.59;;;7.86;80.40
76998;BME280;65930;48.874;10.734;2023-04-01T12:31:27;94752.97;;;7.84;80.67
76998;BME280;65930;48.874;10.734;2023-04-01T12:34:16;94758.00;;;7.89;81.37
76998;BME280;65930;48.874;10.734;2023-04-01T12:37:05;94753.22;;;7.93;81.41
76998;BME280;65930;48.874;10.734;2023-04-01T12:39:57;94756.03;;;7.90;81.95
76998;BME280;65930;48.874;10.734;2023-04-01T12:42:42;94754.44;;;7.92;81.83
76998;BME280;65930;48.874;10.734;2023-04-01T12:45:27;94756.38;;;7.95;82.48
76998;BME280;65930;48.874;10.734;2023-04-01T12:48:24;94760.69;;;7.96;82.08
76998;BME280;65930;48.874;10.734;2023-04-01T12:51:31;94762.28;;;7.94;80.95
76998;BME280;65930;48.874;10.734;2023-04-01T12:57:33;94756.63;;;8.05;82.15
76998;BME280;65930;48.874;10.734;2023-04-01T13:00:19;94768.06;;;8.03;82.37
76998;BME280;65930;48.874;10.734;2023-04-01T13:03:12;94766.94;;;8.01;83.77
76998;BME280;65930;48.874;10.734;2023-04-01T13:06:09;94770.81;;;8.07;83.53
76998;BME280;65930;48.874;10.734;2023-04-01T13:08:55;94770.88;;;8.00;83.01
76998;BME280;65930;48.874;10.734;2023-04-01T13:11:43;94770.25;;;7.88;84.13
76998;BME280;65930;48.874;10.734;2023-04-01T13:14:39;94769.50;;;7.84;84.95
76998;BME280;65930;48.874;10.734;2023-04-01T13:17:19;94769.28;;;8.02;85.02
76998;BME280;65930;48.874;10.734;2023-04-01T13:19:58;94775.78;;;7.88;84.51
76998;BME280;65930;48.874;10.734;2023-04-01T13:22:48;94777.31;;;7.89;85.37
76998;BME280;65930;48.874;10.734;2023-04-01T13:25:26;94779.72;;;7.87;84.47
76998;BME280;65930;48.874;10.734;2023-04-01T13:28:08;94778.56;;;7.85;85.23
76998;BME280;65930;48.874;10.734;2023-04-01T13:30:49;94771.06;;;7.85;84.50
76998;BME280;65930;48.874;10.734;2023-04-01T13:33:27;94782.88;;;7.86;85.33
76998;BME280;65930;48.874;10.734;2023-04-01T13:36:11;94775.34;;;7.90;85.61
76998;BME280;65930;48.874;10.734;2023-04-01T13:39:10;94791.44;;;7.95;86.11
76998;BME280;65930;48.874;10.734;2023-04-01T13:41:55;94780.81;;;7.93;86.07
76998;BME280;65930;48.874;10.734;2023-04-01T13:44:34;94775.56;;;8.03;85.83
76998;BME280;65930;48.874;10.734;2023-04-01T13:47:30;94778.03;;;7.93;85.74
76998;BME280;65930;48.874;10.734;2023-04-01T13:50:17;94787.88;;;7.94;85.85
76998;BME280;65930;48.874;10.734;2023-04-01T13:55:55;94787.44;;;8.00;84.82
76998;BME280;65930;48.874;10.734;2023-04-01T13:58:45;94798.47;;;8.00;84.49
76998;BME280;65930;48.874;10.734;2023-04-01T14:01:27;94789.72;;;8.05;84.51
76998;BME280;65930;48.874;10.734;2023-04-01T14:04:40;94792.16;;;7.99;85.70
76998;BME280;65930;48.874;10.734;2023-04-01T14:07:25;94798.06;;;8.01;85.09
76998;BME280;65930;48.874;10.734;2023-04-01T14:10:07;94794.50;;;8.01;85.21
76998;BME280;65930;48.874;10.734;2023-04-01T14:12:41;94793.66;;;8.04;85.66
76998;BME280;65930;48.874;10.734;2023-04-01T14:15:29;94789.06;;;7.97;85.48
76998;BME280;65930;48.874;10.734;2023-04-01T14:18:16;94793.31;;;8.02;85.73
76998;BME280;65930;48.874;10.734;2023-04-01T14:21:07;94785.41;;;8.04;84.73
76998;BME280;65930;48.874;10.734;2023-04-01T14:23:51;94788.16;;;8.04;84.65
76998;BME280;65930;48.874;10.734;2023-04-01T14:26:53;94802.94;;;8.17;84.67
76998;BME280;65930;48.874;10.734;2023-04-01T14:29:36;94795.78;;;8.23;82.31
76998;BME280;65930;48.874;10.734;2023-04-01T14:32:13;94798.47;;;8.30;80.31
76998;BME280;65930;48.874;10.734;2023-04-01T14:35:06;94792.00;;;8.40;78.30
76998;BME280;65930;48.874;10.734;2023-04-01T14:37:58;94799.09;;;8.41;77.59
76998;BME280;65930;48.874;10.734;2023-04-01T14:40:45;94790.75;;;8.45;77.70
76998;BME280;65930;48.874;10.734;2023-04-01T14:43:42;94804.94;;;8.47;77.09
76998;BME280;65930;48.874;10.734;2023-04-01T14:46:41;94800.91;;;8.51;75.63
76998;BME280;65930;48.874;10.734;2023-04-01T14:49:20;94800.06;;;8.54;75.07
76998;BME280;65930;48.874;10.734;2023-04-01T14:51:52;94799.31;;;8.54;76.37
76998;BME280;65930;48.874;10.734;2023-04-01T14:54:31;94805.19;;;8.56;76.42
76998;BME280;65930;48.874;10.734;2023-04-01T14:57:10;94796.13;;;8.55;75.79
76998;BME280;65930;48.874;10.734;2023-04-01T14:59:41;94810.22;;;8.61;76.40
76998;BME280;65930;48.874;10.734;2023-04-01T15:02:30;94811.09;;;8.54;76.06
76998;BME280;65930;48.874;10.734;2023-04-01T15:05:14;94804.78;;;8.57;75.71
76998;BME280;65930;48.874;10.734;2023-04-01T15:08:06;94807.22;;;8.52;75.41
76998;BME280;65930;48.874;10.734;2023-04-01T15:10:59;94824.56;;;8.52;75.82
76998;BME280;65930;48.874;10.734;2023-04-01T15:14:00;94815.13;;;8.50;74.94
76998;BME280;65930;48.874;10.734;2023-04-01T15:16:44;94821.44;;;8.50;75.18